Wetterdaten für den Flughafen Lübeck Blankensee


ADDS - METARS form results Aviation Digital Data Service (ADDS) Output produced by METARs form (2254 UTC 19 March 2019)
found at http://www.aviationweather.gov/metar/data/
 
EDHL 191750Z 27005KT 240V300 CAVOK 06/M02 Q1028
TAF EDHL 191700Z 1918/1921 27003KT CAVOK

Nord: Hamburg, Lübeck
Ost: Schwerin, Rostock
Süd: Hannover
West: Bremen, Nordhloz

 

Copyright © 2016 Flugschule Hohensee